Sorrento, Florida
Current Conditions -  °F | °C
As of 4:53 PM on Friday 31 Oct 2014 (Local Time) from KLEE Reporting Station
Clear Clear  
Wind Chill: 75°   Ceiling: Unl
Heat Index: 75°   Visibility: 10mi
Dew Point: 47°   Wind: 8mph
Humidity: 37%   Direction: 310°NW
Pressure: 29.82"   Gusts: NA
Location:  28.81°N, 81.56°W
Report Text: KLEE 312053Z AUTO 31007KT 270V350 10SM CLR 24/08 A2982 RMK AO2 SLP097 T02390083 55007
Loading
Personal Weather Stations






























Interactive Weather Map New forecast layout! Learn more

10-Day Weather Forecast

Advertisements
Track Severe Weather on mobile